Time,TemperatureF,DewpointF,PressureIn,WindDirection,WindDirectionDegrees,WindSpeedMPH,WindSpeedGustMPH,Humidity,HourlyPrecipIn,Conditions,Clouds,dailyrainin,SoftwareType,DateUTC
2013-05-15 07:30:00,72.7,34.8,30.06,SE,131,0.0,1.0,25,0.00,,,0.00,Wunderground v.1.15,2013-05-15 14:30:00,
2013-05-15 07:40:00,73.2,35.2,30.07,ENE,75,1.0,3.0,25,0.00,,,0.00,Wunderground v.1.15,2013-05-15 14:40:00,
2013-05-15 07:50:00,73.1,36.2,30.06,NNE,30,2.0,2.0,26,0.00,,,0.00,Wunderground v.1.15,2013-05-15 14:50:00,
2013-05-15 08:00:00,73.2,36.2,30.07,ENE,60,2.0,4.0,26,0.00,,,0.00,Wunderground v.1.15,2013-05-15 15:00:00,
2013-05-15 08:10:00,74.8,37.6,30.07,NNE,20,2.0,3.0,26,0.00,,,0.00,Wunderground v.1.15,2013-05-15 15:10:00,
2013-05-15 08:20:00,76.8,33.9,30.07,SSW,207,3.0,3.0,21,0.00,,,0.00,Wunderground v.1.15,2013-05-15 15:20:00,
2013-05-15 08:30:00,78.7,34.2,30.06,ESE,110,4.0,5.0,20,0.00,,,0.00,Wunderground v.1.15,2013-05-15 15:30:00,
2013-05-15 08:40:00,79.7,36.3,30.06,SSE,168,4.0,7.0,21,0.00,,,0.00,Wunderground v.1.15,2013-05-15 15:40:00,
2013-05-15 08:50:00,80.2,35.5,30.06,SE,136,6.0,8.0,20,0.00,,,0.00,Wunderground v.1.15,2013-05-15 15:50:00,
2013-05-15 09:01:00,80.3,34.3,30.06,South,172,6.0,11.0,19,0.00,,,0.00,Wunderground v.1.15,2013-05-15 16:01:00,
2013-05-15 09:10:00,80.7,34.6,30.06,South,185,7.0,7.0,19,0.00,,,0.00,Wunderground v.1.15,2013-05-15 16:10:00,
2013-05-15 09:20:00,81.7,35.4,30.05,SW,224,6.0,10.0,19,0.00,,,0.00,Wunderground v.1.15,2013-05-15 16:20:00,
2013-05-15 09:30:00,81.9,32.8,30.05,SSE,157,7.0,7.0,17,0.00,,,0.00,Wunderground v.1.15,2013-05-15 16:30:00,
2013-05-15 09:40:00,81.8,31.2,30.05,South,188,8.0,9.0,16,0.00,,,0.00,Wunderground v.1.15,2013-05-15 16:40:00,
2013-05-15 09:50:00,83.1,32.2,30.05,SSW,204,7.0,9.0,16,0.00,,,0.00,Wunderground v.1.15,2013-05-15 16:50:00,
2013-05-15 10:00:00,83.2,33.8,30.05,SSE,153,9.0,10.0,17,0.00,,,0.00,Wunderground v.1.15,2013-05-15 17:00:00,
2013-05-15 10:10:00,83.4,34.0,30.05,SSE,150,8.0,8.0,17,0.00,,,0.00,Wunderground v.1.15,2013-05-15 17:10:00,
2013-05-15 10:20:00,84.1,34.6,30.05,South,188,8.0,8.0,17,0.00,,,0.00,Wunderground v.1.15,2013-05-15 17:20:00,
2013-05-15 10:30:00,85.0,30.4,30.05,SSE,147,7.0,7.0,14,0.00,,,0.00,Wunderground v.1.15,2013-05-15 17:30:00,
2013-05-15 10:40:00,85.2,32.3,30.04,SSW,192,6.0,6.0,15,0.00,,,0.00,Wunderground v.1.15,2013-05-15 17:40:00,
2013-05-15 10:50:00,85.5,30.8,30.05,WNW,300,8.0,8.0,14,0.00,,,0.00,Wunderground v.1.15,2013-05-15 17:50:00,
2013-05-15 11:01:00,85.5,29.0,30.05,WSW,240,7.0,7.0,13,0.00,,,0.00,Wunderground v.1.15,2013-05-15 18:01:00,
2013-05-15 11:20:00,86.0,31.2,30.04,SW,231,8.0,8.0,14,0.00,,,0.00,Wunderground v.1.15,2013-05-15 18:20:00,
2013-05-15 11:30:00,86.4,27.8,30.05,WNW,295,6.0,6.0,12,0.00,,,0.00,Wunderground v.1.15,2013-05-15 18:30:00,
2013-05-15 11:40:00,86.6,29.9,30.04,NW,314,6.0,6.0,13,0.00,,,0.00,Wunderground v.1.15,2013-05-15 18:40:00,
2013-05-15 11:50:00,86.5,29.8,30.03,SSE,152,7.0,7.0,13,0.00,,,0.00,Wunderground v.1.15,2013-05-15 18:50:00,
2013-05-15 12:10:00,86.7,31.8,30.03,South,176,8.0,8.0,14,0.00,,,0.00,Wunderground v.1.15,2013-05-15 19:10:00,
2013-05-15 12:20:00,87.3,32.3,30.02,SSE,162,7.0,11.0,14,0.00,,,0.00,Wunderground v.1.15,2013-05-15 19:20:00,
2013-05-15 12:30:00,87.5,30.6,30.02,SSE,162,8.0,8.0,13,0.00,,,0.00,Wunderground v.1.15,2013-05-15 19:30:00,
2013-05-15 12:40:00,87.5,32.4,30.02,SE,135,9.0,9.0,14,0.00,,,0.00,Wunderground v.1.15,2013-05-15 19:40:00,
2013-05-15 12:50:00,87.9,30.9,30.01,South,179,10.0,10.0,13,0.00,,,0.00,Wunderground v.1.15,2013-05-15 19:50:00,
2013-05-15 13:00:00,88.4,31.3,30.01,South,174,9.0,9.0,13,0.00,,,0.00,Wunderground v.1.15,2013-05-15 20:00:00,
2013-05-15 13:10:00,88.9,22.7,30.01,SW,216,9.0,9.0,9,0.00,,,0.00,Wunderground v.1.15,2013-05-15 20:10:00,
2013-05-15 13:20:00,89.5,23.2,30.01,West,262,7.0,7.0,9,0.00,,,0.00,Wunderground v.1.15,2013-05-15 20:20:00,
2013-05-15 13:31:00,88.9,20.0,30.01,WNW,286,8.0,8.0,8,0.00,,,0.00,Wunderground v.1.15,2013-05-15 20:31:00,
2013-05-15 13:40:00,88.8,22.7,30.00,SSE,151,7.0,7.0,9,0.00,,,0.00,Wunderground v.1.15,2013-05-15 20:40:00,
2013-05-15 13:50:00,88.6,22.5,30.00,SW,221,9.0,9.0,9,0.00,,,0.00,Wunderground v.1.15,2013-05-15 20:50:00,
2013-05-15 14:00:00,88.6,22.5,30.00,SW,226,9.0,15.0,9,0.00,,,0.00,Wunderground v.1.15,2013-05-15 21:00:00,
2013-05-15 14:10:00,88.3,24.8,30.00,SW,220,9.0,10.0,10,0.00,,,0.00,Wunderground v.1.15,2013-05-15 21:10:00,
2013-05-15 14:20:00,88.4,24.9,30.00,South,184,10.0,10.0,10,0.00,,,0.00,Wunderground v.1.15,2013-05-15 21:20:00,
2013-05-15 14:30:00,88.7,25.1,29.99,WNW,287,7.0,7.0,10,0.00,,,0.00,Wunderground v.1.15,2013-05-15 21:30:00,
2013-05-15 14:40:00,88.7,25.1,29.99,SSW,198,9.0,9.0,10,0.00,,,0.00,Wunderground v.1.15,2013-05-15 21:40:00,
2013-05-15 14:50:00,88.7,25.1,29.98,SW,235,8.0,8.0,10,0.00,,,0.00,Wunderground v.1.15,2013-05-15 21:50:00,
2013-05-15 15:01:00,88.5,25.0,29.97,SSW,205,8.0,11.0,10,0.00,,,0.00,Wunderground v.1.15,2013-05-15 22:01:00,
2013-05-15 15:10:00,89.0,25.3,29.97,SSW,207,7.0,7.0,10,0.00,,,0.00,Wunderground v.1.15,2013-05-15 22:10:00,
2013-05-15 15:20:00,88.7,25.1,29.97,SSW,209,9.0,14.0,10,0.00,,,0.00,Wunderground v.1.15,2013-05-15 22:20:00,
2013-05-15 15:30:00,88.3,24.8,29.96,SSW,204,9.0,9.0,10,0.00,,,0.00,Wunderground v.1.15,2013-05-15 22:30:00,
2013-05-15 15:40:00,88.6,25.0,29.97,SSW,204,9.0,9.0,10,0.00,,,0.00,Wunderground v.1.15,2013-05-15 22:40:00,
2013-05-15 15:50:00,88.1,24.7,29.96,SSW,204,12.0,12.0,10,0.00,,,0.00,Wunderground v.1.15,2013-05-15 22:50:00,
2013-05-15 16:01:00,88.1,24.7,29.96,SSW,198,8.0,8.0,10,0.00,,,0.00,Wunderground v.1.15,2013-05-15 23:01:00,
2013-05-15 16:10:00,88.2,24.7,29.95,SW,223,8.0,8.0,10,0.00,,,0.00,Wunderground v.1.15,2013-05-15 23:10:00,
2013-05-15 16:20:00,87.9,24.5,29.96,South,183,9.0,9.0,10,0.00,,,0.00,Wunderground v.1.15,2013-05-15 23:20:00,
2013-05-15 16:30:00,88.3,22.3,29.96,SSE,167,7.0,11.0,9,0.00,,,0.00,Wunderground v.1.15,2013-05-15 23:30:00,
2013-05-15 16:40:00,87.9,22.0,29.96,SE,136,9.0,9.0,9,0.00,,,0.00,Wunderground v.1.15,2013-05-15 23:40:00,
2013-05-15 16:50:00,88.4,22.4,29.95,South,190,7.0,7.0,9,0.00,,,0.00,Wunderground v.1.15,2013-05-15 23:50:00,
2013-05-15 17:00:00,88.2,22.2,29.95,South,169,8.0,12.0,9,0.00,,,0.00,Wunderground v.1.15,2013-05-16 00:00:00,
2013-05-15 17:10:00,88.1,22.1,29.96,WSW,237,8.0,8.0,9,0.00,,,0.00,Wunderground v.1.15,2013-05-16 00:10:00,
2013-05-15 17:20:00,87.5,21.7,29.95,SSW,192,6.0,8.0,9,0.00,,,0.00,Wunderground v.1.15,2013-05-16 00:20:00,
2013-05-15 17:30:00,87.7,19.1,29.95,NNW,340,6.0,6.0,8,0.00,,,0.00,Wunderground v.1.15,2013-05-16 00:30:00,
2013-05-15 17:40:00,87.1,18.6,29.95,SSW,207,6.0,6.0,8,0.00,,,0.00,Wunderground v.1.15,2013-05-16 00:40:00,
2013-05-15 17:50:00,86.8,18.4,29.94,West,273,5.0,5.0,8,0.00,,,0.00,Wunderground v.1.15,2013-05-16 00:50:00,
2013-05-15 18:00:00,86.5,18.2,29.94,SW,222,5.0,5.0,8,0.00,,,0.00,Wunderground v.1.15,2013-05-16 01:00:00,
2013-05-15 18:10:00,86.1,17.9,29.94,South,191,4.0,6.0,8,0.00,,,0.00,Wunderground v.1.15,2013-05-16 01:10:00,
2013-05-15 18:20:00,85.2,17.2,29.94,SW,221,5.0,5.0,8,0.00,,,0.00,Wunderground v.1.15,2013-05-16 01:20:00,
2013-05-15 18:30:00,84.6,16.8,29.94,WNW,287,5.0,5.0,8,0.00,,,0.00,Wunderground v.1.15,2013-05-16 01:30:00,
2013-05-15 18:40:00,83.1,18.4,29.95,SW,224,2.0,2.0,9,0.00,,,0.00,Wunderground v.1.15,2013-05-16 01:40:00,
2013-05-15 18:50:00,81.7,17.3,29.95,SSE,166,2.0,2.0,9,0.00,,,0.00,Wunderground v.1.15,2013-05-16 01:50:00,
2013-05-15 19:00:00,80.7,13.9,29.95,South,176,3.0,3.0,8,0.00,,,0.00,Wunderground v.1.15,2013-05-16 02:00:00,
2013-05-15 19:10:00,79.9,16.0,29.95,SSE,165,2.0,3.0,9,0.00,,,0.00,Wunderground v.1.15,2013-05-16 02:10:00,
2013-05-15 19:20:00,79.9,16.0,29.95,SSW,192,5.0,5.0,9,0.00,,,0.00,Wunderground v.1.15,2013-05-16 02:20:00,
2013-05-15 19:31:00,78.5,14.9,29.96,SSW,212,2.0,2.0,9,0.00,,,0.00,Wunderground v.1.15,2013-05-16 02:31:00,
2013-05-15 19:40:00,77.6,14.2,29.96,SW,226,2.0,2.0,9,0.00,,,0.00,Wunderground v.1.15,2013-05-16 02:40:00,
2013-05-15 19:50:00,76.2,15.6,29.96,SW,224,2.0,3.0,10,0.00,,,0.00,Wunderground v.1.15,2013-05-16 02:50:00,
2013-05-15 20:01:00,74.9,14.6,29.97,SW,218,2.0,2.0,10,0.00,,,0.00,Wunderground v.1.15,2013-05-16 03:01:00,
2013-05-15 20:10:00,75.7,15.2,29.97,SW,229,3.0,3.0,10,0.00,,,0.00,Wunderground v.1.15,2013-05-16 03:10:00,
2013-05-15 20:20:00,75.4,15.0,29.97,WSW,240,3.0,3.0,10,0.00,,,0.00,Wunderground v.1.15,2013-05-16 03:20:00,
2013-05-15 20:30:00,73.7,15.9,29.98,SW,218,1.0,2.0,11,0.00,,,0.00,Wunderground v.1.15,2013-05-16 03:30:00,
2013-05-15 20:40:00,74.1,16.2,29.98,WSW,242,2.0,2.0,11,0.00,,,0.00,Wunderground v.1.15,2013-05-16 03:40:00,
2013-05-15 20:50:00,72.2,14.7,29.99,SW,231,1.0,1.0,11,0.00,,,0.00,Wunderground v.1.15,2013-05-16 03:50:00,
2013-05-15 21:01:00,71.8,14.4,29.99,West,281,2.0,2.0,11,0.00,,,0.00,Wunderground v.1.15,2013-05-16 04:01:00,
2013-05-15 21:10:00,71.1,15.9,29.99,WSW,244,1.0,2.0,12,0.00,,,0.00,Wunderground v.1.15,2013-05-16 04:10:00,
2013-05-15 21:20:00,70.8,15.6,29.99,West,269,2.0,2.0,12,0.00,,,0.00,Wunderground v.1.15,2013-05-16 04:20:00,
2013-05-15 21:30:00,71.2,15.9,30.00,West,278,2.0,2.0,12,0.00,,,0.00,Wunderground v.1.15,2013-05-16 04:30:00,